Jasper — TCTL2 — position and weather

sailwx.info

Track history (hours):
 
Tides and Currents Weather Stations Pressure Air Temp Water Temp Dewpoint Dewpoint Depression Visibility Wind Speed Wind Dir Waves Ship Positions

Jasper

Last reported at 2014-Dec-18 20:30 UTC. Time now 2014-Dec-21 19:23 UTC.
Position N 43°54' E 039°09'.

Length 94 m; draft 6.4 m.

Type: Cargo ship. MMSI: 271002689.

Date/timePositionNaut miles runAvg speedWind from/ knotsBaromVisibWave heightAir tempDewpointWater temp
2014-Dec-18 20:30N 43°54' E 039°09'8 8.9
2014-Dec-18 19:33N 44°01' E 039°04'4 4.1
2014-Dec-18 18:33N 44°06' E 039°04'0 0.0
2014-Dec-18 17:26N 44°06' E 039°04'0 0.0
2014-Dec-18 16:31N 44°06' E 039°04'0 0.0
2014-Dec-18 15:33N 44°06' E 039°04'0 0.0
2014-Dec-18 14:33N 44°06' E 039°04'0 0.0
2014-Dec-18 13:32N 44°06' E 039°04'0 0.0
2014-Dec-18 12:31N 44°06' E 039°04'0 0.0
2014-Dec-18 11:31N 44°06' E 039°04'0 0.0
2014-Dec-18 10:28N 44°06' E 039°04'0 0.0
2014-Dec-18 09:32N 44°06' E 039°04'0 0.0
2014-Dec-18 08:33N 44°06' E 039°04'0 0.0
2014-Dec-18 07:33N 44°06' E 039°04'0 0.0
2014-Dec-18 06:32N 44°06' E 039°04'0 0.0
2014-Dec-18 05:27N 44°06' E 039°04'0 0.0
2014-Dec-18 04:31N 44°06' E 039°04'0 0.0
2014-Dec-18 03:33N 44°06' E 039°04'0 0.0
2014-Dec-18 02:31N 44°06' E 039°04'0 0.0
2014-Dec-18 01:32N 44°06' E 039°04'0 0.0
2014-Dec-18 00:32N 44°06' E 039°04'0 0.0
2014-Dec-17 23:32N 44°06' E 039°04'0 0.0
2014-Dec-17 22:33N 44°06' E 039°04'0 0.0
2014-Dec-17 21:31N 44°06' E 039°04'0 0.0
2014-Dec-17 20:31N 44°06' E 039°04'0 0.0
2014-Dec-17 19:32N 44°06' E 039°04'0 0.0
2014-Dec-17 18:33N 44°06' E 039°04'0 0.0
2014-Dec-17 17:33N 44°06' E 039°04'0 0.0
2014-Dec-17 16:32N 44°06' E 039°04'0 0.0
2014-Dec-17 15:32N 44°06' E 039°04'0 0.0
2014-Dec-17 14:33N 44°06' E 039°04'0 0.0
2014-Dec-17 13:30N 44°06' E 039°04'0 0.0
2014-Dec-17 12:31N 44°06' E 039°04'0 0.0
2014-Dec-17 11:32N 44°06' E 039°04'0 0.0
2014-Dec-17 10:31N 44°06' E 039°04'0 0.0
2014-Dec-17 09:31N 44°06' E 039°04'0 0.0
2014-Dec-17 08:32N 44°06' E 039°04'0 0.0
2014-Dec-17 07:31N 44°06' E 039°04'0 0.0
2014-Dec-17 06:31N 44°06' E 039°04'2 1.6
2014-Dec-17 05:34N 44°04' E 039°04'9 8.5
2014-Dec-17 04:33N 43°56' E 038°59'  
2014-Dec-13 14:05N 41°15' E 029°38'5 8.8
2014-Dec-13 13:33N 41°15' E 029°32'  
Track history (hours):
 
Tides and Currents Weather Stations Pressure Air Temp Water Temp Dewpoint Dewpoint Depression Visibility Wind Speed Wind Dir Waves Ship Positions

Jasper

Last reported at 2014-Dec-18 20:30 UTC. Time now 2014-Dec-21 19:23 UTC.
Position N 43°54' E 039°09'.

Length 94 m; draft 6.4 m.

Type: Cargo ship. MMSI: 271002689.

Date/timePositionNaut miles runAvg speedWind from/ knotsBaromVisibWave heightAir tempDewpointWater temp
2014-Dec-18 20:30N 43°54' E 039°09'8 8.9
2014-Dec-18 19:33N 44°01' E 039°04'4 4.1
2014-Dec-18 18:33N 44°06' E 039°04'0 0.0
2014-Dec-18 17:26N 44°06' E 039°04'0 0.0
2014-Dec-18 16:31N 44°06' E 039°04'0 0.0
2014-Dec-18 15:33N 44°06' E 039°04'0 0.0
2014-Dec-18 14:33N 44°06' E 039°04'0 0.0
2014-Dec-18 13:32N 44°06' E 039°04'0 0.0
2014-Dec-18 12:31N 44°06' E 039°04'0 0.0
2014-Dec-18 11:31N 44°06' E 039°04'0 0.0
2014-Dec-18 10:28N 44°06' E 039°04'0 0.0
2014-Dec-18 09:32N 44°06' E 039°04'0 0.0
2014-Dec-18 08:33N 44°06' E 039°04'0 0.0
2014-Dec-18 07:33N 44°06' E 039°04'0 0.0
2014-Dec-18 06:32N 44°06' E 039°04'0 0.0
2014-Dec-18 05:27N 44°06' E 039°04'0 0.0
2014-Dec-18 04:31N 44°06' E 039°04'0 0.0
2014-Dec-18 03:33N 44°06' E 039°04'0 0.0
2014-Dec-18 02:31N 44°06' E 039°04'0 0.0
2014-Dec-18 01:32N 44°06' E 039°04'0 0.0
2014-Dec-18 00:32N 44°06' E 039°04'0 0.0
2014-Dec-17 23:32N 44°06' E 039°04'0 0.0
2014-Dec-17 22:33N 44°06' E 039°04'0 0.0
2014-Dec-17 21:31N 44°06' E 039°04'0 0.0
2014-Dec-17 20:31N 44°06' E 039°04'0 0.0
2014-Dec-17 19:32N 44°06' E 039°04'0 0.0
2014-Dec-17 18:33N 44°06' E 039°04'0 0.0
2014-Dec-17 17:33N 44°06' E 039°04'0 0.0
2014-Dec-17 16:32N 44°06' E 039°04'0 0.0
2014-Dec-17 15:32N 44°06' E 039°04'0 0.0
2014-Dec-17 14:33N 44°06' E 039°04'0 0.0
2014-Dec-17 13:30N 44°06' E 039°04'0 0.0
2014-Dec-17 12:31N 44°06' E 039°04'0 0.0
2014-Dec-17 11:32N 44°06' E 039°04'0 0.0
2014-Dec-17 10:31N 44°06' E 039°04'0 0.0
2014-Dec-17 09:31N 44°06' E 039°04'0 0.0
2014-Dec-17 08:32N 44°06' E 039°04'0 0.0
2014-Dec-17 07:31N 44°06' E 039°04'0 0.0
2014-Dec-17 06:31N 44°06' E 039°04'2 1.6
2014-Dec-17 05:34N 44°04' E 039°04'9 8.5
2014-Dec-17 04:33N 43°56' E 038°59'  
2014-Dec-13 14:05N 41°15' E 029°38'5 8.8
2014-Dec-13 13:33N 41°15' E 029°32'  

Dump ship's entire track history